Terminal Aerodrome Forecast
Issued by NWS

Home | Current Version | Previous Version | Graphics & Text | Print | Product List | Glossary On
Versions: 1 2 3 4 5 6 7 8 9 10 11
000
FTUS43 KICT 231120
TAFRSL
TAF
KRSL 231120Z 2312/2412 31015G25KT P6SM SCT020 OVC030
     FM231500 34022G32KT P6SM BKN025 OVC035
     FM231700 34025G34KT 5SM -SN SCT009 OVC018
      TEMPO 2318/2322 1 1/2SM -SN OVC012
     FM240000 34017G25KT P6SM OVC020=

USA.gov is the U.S. government's official web portal to all federal, state and local government web resources and services.